sensor_id;sensor_type;location;lat;lon;timestamp;pressure;altitude;pressure_sealevel;temperature;humidity
54978;BME280;40873;47.522;19.106;2023-06-26T00:01:33;100207.00;;;19.59;96.82
54978;BME280;40873;47.522;19.106;2023-06-26T00:04:00;100215.03;;;19.59;97.77
54978;BME280;40873;47.522;19.106;2023-06-26T00:06:28;100209.84;;;19.57;100.00
54978;BME280;40873;47.522;19.106;2023-06-26T00:08:56;100204.50;;;19.57;100.00
54978;BME280;40873;47.522;19.106;2023-06-26T00:11:24;100213.94;;;19.52;100.00
54978;BME280;40873;47.522;19.106;2023-06-26T00:13:51;100213.88;;;19.43;100.00
54978;BME280;40873;47.522;19.106;2023-06-26T00:16:18;100214.63;;;19.36;100.00
54978;BME280;40873;47.522;19.106;2023-06-26T00:18:45;100218.91;;;19.29;100.00
54978;BME280;40873;47.522;19.106;2023-06-26T00:21:12;100211.31;;;19.24;100.00
54978;BME280;40873;47.522;19.106;2023-06-26T00:23:39;100215.31;;;19.20;100.00
54978;BME280;40873;47.522;19.106;2023-06-26T00:26:06;100216.28;;;19.19;100.00
54978;BME280;40873;47.522;19.106;2023-06-26T00:28:33;100209.25;;;19.18;100.00
54978;BME280;40873;47.522;19.106;2023-06-26T00:31:00;100217.59;;;19.15;100.00
54978;BME280;40873;47.522;19.106;2023-06-26T00:33:27;100218.03;;;19.10;100.00
54978;BME280;40873;47.522;19.106;2023-06-26T00:35:54;100217.50;;;19.07;100.00
54978;BME280;40873;47.522;19.106;2023-06-26T00:38:22;100216.13;;;19.03;100.00
54978;BME280;40873;47.522;19.106;2023-06-26T00:40:48;100214.88;;;18.97;100.00
54978;BME280;40873;47.522;19.106;2023-06-26T00:43:16;100219.84;;;18.92;100.00
54978;BME280;40873;47.522;19.106;2023-06-26T00:45:43;100210.59;;;18.86;100.00
54978;BME280;40873;47.522;19.106;2023-06-26T00:48:10;100225.38;;;18.81;100.00
54978;BME280;40873;47.522;19.106;2023-06-26T00:50:41;100220.03;;;18.81;100.00
54978;BME280;40873;47.522;19.106;2023-06-26T00:53:10;100216.59;;;18.71;100.00
54978;BME280;40873;47.522;19.106;2023-06-26T00:55:38;100210.50;;;18.78;100.00
54978;BME280;40873;47.522;19.106;2023-06-26T00:58:05;100212.94;;;18.72;100.00
54978;BME280;40873;47.522;19.106;2023-06-26T01:00:32;100207.03;;;18.68;100.00
54978;BME280;40873;47.522;19.106;2023-06-26T01:03:00;100208.56;;;18.61;100.00
54978;BME280;40873;47.522;19.106;2023-06-26T01:05:28;100212.66;;;18.65;100.00
54978;BME280;40873;47.522;19.106;2023-06-26T01:07:57;100206.03;;;18.69;100.00
54978;BME280;40873;47.522;19.106;2023-06-26T01:10:25;100205.44;;;18.75;100.00
54978;BME280;40873;47.522;19.106;2023-06-26T01:13:02;100203.91;;;18.73;100.00
54978;BME280;40873;47.522;19.106;2023-06-26T01:15:29;100202.09;;;18.73;100.00
54978;BME280;40873;47.522;19.106;2023-06-26T01:17:57;100197.00;;;18.70;100.00
54978;BME280;40873;47.522;19.106;2023-06-26T01:20:39;100194.22;;;18.72;100.00
54978;BME280;40873;47.522;19.106;2023-06-26T01:28:41;100191.69;;;18.60;100.00
54978;BME280;40873;47.522;19.106;2023-06-26T01:31:10;100193.84;;;18.57;100.00
54978;BME280;40873;47.522;19.106;2023-06-26T01:33:39;100186.78;;;18.56;100.00
54978;BME280;40873;47.522;19.106;2023-06-26T01:36:07;100188.78;;;18.54;100.00
54978;BME280;40873;47.522;19.106;2023-06-26T01:38:34;100186.69;;;18.48;100.00
54978;BME280;40873;47.522;19.106;2023-06-26T01:41:02;100189.38;;;18.48;100.00
54978;BME280;40873;47.522;19.106;2023-06-26T01:49:39;100185.91;;;18.38;100.00
54978;BME280;40873;47.522;19.106;2023-06-26T01:57:45;100194.09;;;18.26;100.00
54978;BME280;40873;47.522;19.106;2023-06-26T02:00:18;100191.72;;;18.23;100.00
54978;BME280;40873;47.522;19.106;2023-06-26T02:02:46;100190.88;;;18.23;100.00
54978;BME280;40873;47.522;19.106;2023-06-26T02:05:13;100185.28;;;18.16;100.00
54978;BME280;40873;47.522;19.106;2023-06-26T02:07:41;100191.59;;;18.15;100.00
54978;BME280;40873;47.522;19.106;2023-06-26T02:10:08;100194.00;;;18.08;100.00
54978;BME280;40873;47.522;19.106;2023-06-26T02:12:36;100195.84;;;18.08;100.00
54978;BME280;40873;47.522;19.106;2023-06-26T02:15:04;100194.00;;;18.08;100.00
54978;BME280;40873;47.522;19.106;2023-06-26T02:17:31;100199.19;;;18.10;100.00
54978;BME280;40873;47.522;19.106;2023-06-26T02:19:59;100197.78;;;18.06;100.00
54978;BME280;40873;47.522;19.106;2023-06-26T02:22:26;100202.72;;;18.01;100.00
54978;BME280;40873;47.522;19.106;2023-06-26T02:24:55;100202.16;;;17.97;100.00
54978;BME280;40873;47.522;19.106;2023-06-26T02:27:22;100207.38;;;17.99;100.00
54978;BME280;40873;47.522;19.106;2023-06-26T02:29:49;100206.81;;;17.95;100.00
54978;BME280;40873;47.522;19.106;2023-06-26T02:32:16;100205.25;;;17.93;100.00
54978;BME280;40873;47.522;19.106;2023-06-26T02:34:43;100202.19;;;17.88;100.00
54978;BME280;40873;47.522;19.106;2023-06-26T02:37:10;100201.47;;;17.86;100.00
54978;BME280;40873;47.522;19.106;2023-06-26T02:39:38;100207.97;;;17.83;100.00
54978;BME280;40873;47.522;19.106;2023-06-26T02:42:05;100209.78;;;17.83;100.00
54978;BME280;40873;47.522;19.106;2023-06-26T02:44:32;100218.06;;;17.79;100.00
54978;BME280;40873;47.522;19.106;2023-06-26T02:46:59;100215.00;;;17.74;100.00
54978;BME280;40873;47.522;19.106;2023-06-26T02:49:27;100215.97;;;17.73;100.00
54978;BME280;40873;47.522;19.106;2023-06-26T02:51:53;100221.56;;;17.70;100.00
54978;BME280;40873;47.522;19.106;2023-06-26T02:54:21;100214.53;;;17.69;100.00
54978;BME280;40873;47.522;19.106;2023-06-26T02:56:48;100213.31;;;17.73;100.00
54978;BME280;40873;47.522;19.106;2023-06-26T02:59:15;100218.66;;;17.73;100.00
54978;BME280;40873;47.522;19.106;2023-06-26T03:01:42;100211.59;;;17.72;100.00
54978;BME280;40873;47.522;19.106;2023-06-26T03:04:09;100222.16;;;17.74;100.00
54978;BME280;40873;47.522;19.106;2023-06-26T03:06:37;100230.03;;;17.75;100.00
54978;BME280;40873;47.522;19.106;2023-06-26T03:09:04;100223.53;;;17.68;100.00
54978;BME280;40873;47.522;19.106;2023-06-26T03:11:31;100223.25;;;17.71;100.00
54978;BME280;40873;47.522;19.106;2023-06-26T03:13:58;100224.53;;;17.77;100.00
54978;BME280;40873;47.522;19.106;2023-06-26T03:16:25;100224.69;;;17.75;100.00
54978;BME280;40873;47.522;19.106;2023-06-26T03:18:52;100223.69;;;17.76;100.00
54978;BME280;40873;47.522;19.106;2023-06-26T03:21:19;100226.22;;;17.78;100.00
54978;BME280;40873;47.522;19.106;2023-06-26T03:23:46;100224.53;;;17.77;100.00
54978;BME280;40873;47.522;19.106;2023-06-26T03:26:13;100226.06;;;17.79;100.00
54978;BME280;40873;47.522;19.106;2023-06-26T03:28:41;100228.03;;;17.77;100.00
54978;BME280;40873;47.522;19.106;2023-06-26T03:31:11;100231.28;;;17.81;100.00
54978;BME280;40873;47.522;19.106;2023-06-26T03:33:38;100229.47;;;17.82;100.00
54978;BME280;40873;47.522;19.106;2023-06-26T03:36:05;100233.66;;;17.84;100.00
54978;BME280;40873;47.522;19.106;2023-06-26T03:38:33;100220.88;;;17.88;100.00
54978;BME280;40873;47.522;19.106;2023-06-26T03:41:00;100217.06;;;17.90;100.00
54978;BME280;40873;47.522;19.106;2023-06-26T03:43:27;100221.28;;;17.93;100.00
54978;BME280;40873;47.522;19.106;2023-06-26T03:45:54;100223.09;;;17.92;100.00
54978;BME280;40873;47.522;19.106;2023-06-26T03:48:22;100220.84;;;17.97;100.00
54978;BME280;40873;47.522;19.106;2023-06-26T03:50:49;100231.13;;;18.02;100.00
54978;BME280;40873;47.522;19.106;2023-06-26T03:53:16;100228.16;;;18.05;100.00
54978;BME280;40873;47.522;19.106;2023-06-26T03:55:43;100238.56;;;18.08;100.00
54978;BME280;40873;47.522;19.106;2023-06-26T03:58:10;100227.56;;;18.11;100.00
54978;BME280;40873;47.522;19.106;2023-06-26T04:00:37;100226.44;;;18.14;100.00
54978;BME280;40873;47.522;19.106;2023-06-26T04:03:04;100235.84;;;18.18;100.00
54978;BME280;40873;47.522;19.106;2023-06-26T04:05:31;100225.44;;;18.24;100.00
54978;BME280;40873;47.522;19.106;2023-06-26T04:07:58;100237.06;;;18.33;100.00
54978;BME280;40873;47.522;19.106;2023-06-26T04:10:25;100232.31;;;18.37;100.00
54978;BME280;40873;47.522;19.106;2023-06-26T04:12:53;100233.25;;;18.45;100.00
54978;BME280;40873;47.522;19.106;2023-06-26T04:15:19;100228.44;;;18.49;100.00
54978;BME280;40873;47.522;19.106;2023-06-26T04:17:47;100237.03;;;18.52;100.00
54978;BME280;40873;47.522;19.106;2023-06-26T04:20:14;100238.81;;;18.61;100.00
54978;BME280;40873;47.522;19.106;2023-06-26T04:22:42;100237.41;;;18.67;100.00
54978;BME280;40873;47.522;19.106;2023-06-26T04:25:09;100235.00;;;18.74;100.00
54978;BME280;40873;47.522;19.106;2023-06-26T04:27:36;100239.91;;;18.78;100.00
54978;BME280;40873;47.522;19.106;2023-06-26T04:30:07;100244.63;;;18.84;100.00
54978;BME280;40873;47.522;19.106;2023-06-26T04:32:34;100239.28;;;18.84;100.00
54978;BME280;40873;47.522;19.106;2023-06-26T04:35:01;100241.44;;;18.81;100.00
54978;BME280;40873;47.522;19.106;2023-06-26T04:37:30;100237.16;;;18.88;100.00
54978;BME280;40873;47.522;19.106;2023-06-26T04:39:56;100240.09;;;18.95;100.00
54978;BME280;40873;47.522;19.106;2023-06-26T04:42:24;100244.38;;;19.05;100.00
54978;BME280;40873;47.522;19.106;2023-06-26T04:44:51;100249.00;;;19.13;100.00
54978;BME280;40873;47.522;19.106;2023-06-26T04:47:18;100244.63;;;19.12;100.00
54978;BME280;40873;47.522;19.106;2023-06-26T04:49:45;100250.53;;;19.15;100.00
54978;BME280;40873;47.522;19.106;2023-06-26T04:52:13;100248.38;;;19.19;100.00
54978;BME280;40873;47.522;19.106;2023-06-26T04:54:40;100246.25;;;19.23;100.00
54978;BME280;40873;47.522;19.106;2023-06-26T04:57:07;100240.84;;;19.32;100.00
54978;BME280;40873;47.522;19.106;2023-06-26T04:59:35;100248.41;;;19.37;100.00
54978;BME280;40873;47.522;19.106;2023-06-26T05:02:03;100248.81;;;19.42;100.00
54978;BME280;40873;47.522;19.106;2023-06-26T05:04:31;100246.06;;;19.52;100.00
54978;BME280;40873;47.522;19.106;2023-06-26T05:06:59;100251.38;;;19.61;100.00
54978;BME280;40873;47.522;19.106;2023-06-26T05:09:26;100245.09;;;19.70;100.00
54978;BME280;40873;47.522;19.106;2023-06-26T05:11:53;100251.91;;;19.83;100.00
54978;BME280;40873;47.522;19.106;2023-06-26T05:14:20;100250.28;;;19.90;99.94
54978;BME280;40873;47.522;19.106;2023-06-26T05:16:51;100250.84;;;20.02;99.43
54978;BME280;40873;47.522;19.106;2023-06-26T05:19:18;100242.53;;;20.05;100.00
54978;BME280;40873;47.522;19.106;2023-06-26T05:21:45;100245.25;;;20.13;99.15
54978;BME280;40873;47.522;19.106;2023-06-26T05:24:13;100242.81;;;20.19;100.00
54978;BME280;40873;47.522;19.106;2023-06-26T05:26:41;100251.41;;;20.31;99.22
54978;BME280;40873;47.522;19.106;2023-06-26T05:29:08;100245.41;;;20.37;99.34
54978;BME280;40873;47.522;19.106;2023-06-26T05:31:40;100242.66;;;20.47;100.00
54978;BME280;40873;47.522;19.106;2023-06-26T05:34:10;100242.03;;;20.53;99.99
54978;BME280;40873;47.522;19.106;2023-06-26T05:36:38;100236.53;;;20.63;99.07
54978;BME280;40873;47.522;19.106;2023-06-26T05:39:06;100248.00;;;20.73;99.18
54978;BME280;40873;47.522;19.106;2023-06-26T05:41:33;100246.56;;;20.87;98.96
54978;BME280;40873;47.522;19.106;2023-06-26T05:44:00;100238.19;;;20.98;100.00
54978;BME280;40873;47.522;19.106;2023-06-26T05:46:27;100247.97;;;21.07;98.83
54978;BME280;40873;47.522;19.106;2023-06-26T05:48:54;100245.44;;;21.14;99.81
54978;BME280;40873;47.522;19.106;2023-06-26T05:51:22;100254.03;;;21.25;99.18
54978;BME280;40873;47.522;19.106;2023-06-26T05:53:49;100250.41;;;21.34;98.55
54978;BME280;40873;47.522;19.106;2023-06-26T05:56:17;100248.59;;;21.43;96.13
54978;BME280;40873;47.522;19.106;2023-06-26T05:58:45;100249.94;;;21.47;96.48
54978;BME280;40873;47.522;19.106;2023-06-26T06:01:13;100248.44;;;21.53;94.49
54978;BME280;40873;47.522;19.106;2023-06-26T06:03:40;100251.66;;;21.65;92.91
54978;BME280;40873;47.522;19.106;2023-06-26T06:06:07;100245.25;;;21.74;95.32
54978;BME280;40873;47.522;19.106;2023-06-26T06:08:34;100250.13;;;21.86;94.53
54978;BME280;40873;47.522;19.106;2023-06-26T06:11:02;100246.63;;;21.94;94.02
54978;BME280;40873;47.522;19.106;2023-06-26T06:13:29;100242.25;;;22.01;92.53
54978;BME280;40873;47.522;19.106;2023-06-26T06:15:56;100245.09;;;22.08;93.58
54978;BME280;40873;47.522;19.106;2023-06-26T06:18:23;100233.53;;;22.15;91.04
54978;BME280;40873;47.522;19.106;2023-06-26T06:20:50;100238.56;;;22.27;89.87
54978;BME280;40873;47.522;19.106;2023-06-26T06:23:17;100231.31;;;22.35;91.67
54978;BME280;40873;47.522;19.106;2023-06-26T06:25:44;100235.31;;;22.48;91.33
54978;BME280;40873;47.522;19.106;2023-06-26T06:28:11;100238.16;;;22.54;85.72
54978;BME280;40873;47.522;19.106;2023-06-26T06:30:38;100230.75;;;22.56;85.97
54978;BME280;40873;47.522;19.106;2023-06-26T06:33:12;100234.78;;;22.60;86.41
54978;BME280;40873;47.522;19.106;2023-06-26T06:35:39;100230.53;;;22.66;84.78
54978;BME280;40873;47.522;19.106;2023-06-26T06:38:06;100233.56;;;22.71;88.43
54978;BME280;40873;47.522;19.106;2023-06-26T06:40:33;100232.16;;;22.83;87.85
54978;BME280;40873;47.522;19.106;2023-06-26T06:43:00;100233.00;;;22.92;85.73
54978;BME280;40873;47.522;19.106;2023-06-26T06:45:27;100247.75;;;23.04;84.60
54978;BME280;40873;47.522;19.106;2023-06-26T06:47:54;100238.28;;;23.08;81.30
54978;BME280;40873;47.522;19.106;2023-06-26T06:50:22;100252.00;;;23.21;81.63
54978;BME280;40873;47.522;19.106;2023-06-26T06:52:48;100245.75;;;23.29;79.37
54978;BME280;40873;47.522;19.106;2023-06-26T06:55:16;100249.25;;;23.38;78.32
54978;BME280;40873;47.522;19.106;2023-06-26T06:57:43;100243.84;;;23.38;77.59
54978;BME280;40873;47.522;19.106;2023-06-26T07:00:11;100240.59;;;23.50;79.16
54978;BME280;40873;47.522;19.106;2023-06-26T07:02:40;100241.53;;;23.58;76.59
54978;BME280;40873;47.522;19.106;2023-06-26T07:05:08;100247.09;;;23.56;75.79
54978;BME280;40873;47.522;19.106;2023-06-26T07:07:36;100252.06;;;23.44;74.74
54978;BME280;40873;47.522;19.106;2023-06-26T07:12:33;100236.66;;;23.61;74.94
54978;BME280;40873;47.522;19.106;2023-06-26T07:15:01;100236.78;;;23.68;74.78
54978;BME280;40873;47.522;19.106;2023-06-26T07:17:29;100233.53;;;23.72;75.14
54978;BME280;40873;47.522;19.106;2023-06-26T07:19:56;100226.81;;;23.91;74.97
54978;BME280;40873;47.522;19.106;2023-06-26T07:22:23;100229.44;;;23.99;74.39
54978;BME280;40873;47.522;19.106;2023-06-26T07:24:51;100230.66;;;24.12;75.86
54978;BME280;40873;47.522;19.106;2023-06-26T07:27:18;100232.38;;;24.27;71.58
54978;BME280;40873;47.522;19.106;2023-06-26T07:29:46;100232.16;;;23.99;71.69
54978;BME280;40873;47.522;19.106;2023-06-26T07:32:13;100233.63;;;24.02;72.71
54978;BME280;40873;47.522;19.106;2023-06-26T07:34:41;100225.84;;;24.07;70.53
54978;BME280;40873;47.522;19.106;2023-06-26T07:37:08;100237.44;;;24.08;70.14
54978;BME280;40873;47.522;19.106;2023-06-26T07:39:35;100230.75;;;24.03;69.48
54978;BME280;40873;47.522;19.106;2023-06-26T07:42:03;100224.25;;;24.13;69.52
54978;BME280;40873;47.522;19.106;2023-06-26T07:44:30;100235.03;;;24.13;69.02
54978;BME280;40873;47.522;19.106;2023-06-26T07:46:57;100230.75;;;24.18;69.63
54978;BME280;40873;47.522;19.106;2023-06-26T07:49:25;100229.94;;;24.32;71.47
54978;BME280;40873;47.522;19.106;2023-06-26T07:51:51;100228.78;;;24.50;73.25
54978;BME280;40873;47.522;19.106;2023-06-26T07:54:19;100232.03;;;24.45;70.37
54978;BME280;40873;47.522;19.106;2023-06-26T07:57:04;100234.81;;;24.52;68.12
54978;BME280;40873;47.522;19.106;2023-06-26T07:59:33;100238.00;;;24.55;68.12
54978;BME280;40873;47.522;19.106;2023-06-26T08:02:01;100240.09;;;24.30;68.54
54978;BME280;40873;47.522;19.106;2023-06-26T08:04:30;100231.81;;;24.32;68.35
54978;BME280;40873;47.522;19.106;2023-06-26T08:07:00;100233.03;;;24.29;68.86
54978;BME280;40873;47.522;19.106;2023-06-26T08:09:28;100235.63;;;24.23;70.81
54978;BME280;40873;47.522;19.106;2023-06-26T08:11:56;100237.47;;;24.22;70.00
54978;BME280;40873;47.522;19.106;2023-06-26T08:14:24;100229.75;;;24.19;70.89
54978;BME280;40873;47.522;19.106;2023-06-26T08:16:51;100223.34;;;24.20;69.90
54978;BME280;40873;47.522;19.106;2023-06-26T08:19:19;100231.59;;;24.42;71.28
54978;BME280;40873;47.522;19.106;2023-06-26T08:21:46;100229.06;;;24.70;71.89
54978;BME280;40873;47.522;19.106;2023-06-26T08:24:13;100237.78;;;24.86;71.29
54978;BME280;40873;47.522;19.106;2023-06-26T08:26:45;100232.88;;;24.90;69.12
54978;BME280;40873;47.522;19.106;2023-06-26T08:29:12;100234.34;;;24.93;66.79
54978;BME280;40873;47.522;19.106;2023-06-26T08:31:40;100237.69;;;24.95;65.60
54978;BME280;40873;47.522;19.106;2023-06-26T08:34:08;100235.94;;;24.87;64.31
54978;BME280;40873;47.522;19.106;2023-06-26T08:36:35;100239.13;;;24.76;65.23
54978;BME280;40873;47.522;19.106;2023-06-26T08:39:02;100239.13;;;24.76;66.36
54978;BME280;40873;47.522;19.106;2023-06-26T08:41:32;100231.19;;;24.74;68.05
54978;BME280;40873;47.522;19.106;2023-06-26T08:43:59;100238.84;;;24.71;68.06
54978;BME280;40873;47.522;19.106;2023-06-26T08:46:28;100236.50;;;24.68;67.00
54978;BME280;40873;47.522;19.106;2023-06-26T08:48:56;100235.09;;;24.72;67.00
54978;BME280;40873;47.522;19.106;2023-06-26T08:51:25;100236.13;;;24.71;68.44
54978;BME280;40873;47.522;19.106;2023-06-26T08:53:59;100232.22;;;24.73;67.82
54978;BME280;40873;47.522;19.106;2023-06-26T08:56:32;100235.41;;;24.77;64.07
54978;BME280;40873;47.522;19.106;2023-06-26T08:58:59;100222.44;;;24.87;64.56
54978;BME280;40873;47.522;19.106;2023-06-26T09:01:28;100228.59;;;25.10;63.89
54978;BME280;40873;47.522;19.106;2023-06-26T09:03:55;100228.22;;;25.35;62.99
54978;BME280;40873;47.522;19.106;2023-06-26T09:06:22;100229.19;;;25.70;64.47
54978;BME280;40873;47.522;19.106;2023-06-26T09:08:49;100227.03;;;26.02;62.92
54978;BME280;40873;47.522;19.106;2023-06-26T09:11:16;100227.59;;;26.25;62.81
54978;BME280;40873;47.522;19.106;2023-06-26T09:13:44;100220.41;;;26.39;59.28
54978;BME280;40873;47.522;19.106;2023-06-26T09:16:11;100213.91;;;26.61;56.75
54978;BME280;40873;47.522;19.106;2023-06-26T09:18:41;100220.69;;;26.85;59.11
54978;BME280;40873;47.522;19.106;2023-06-26T09:21:09;100219.66;;;26.86;57.81
54978;BME280;40873;47.522;19.106;2023-06-26T09:23:39;100216.25;;;26.71;57.96
54978;BME280;40873;47.522;19.106;2023-06-26T09:26:06;100218.56;;;26.74;57.85
54978;BME280;40873;47.522;19.106;2023-06-26T09:28:34;100223.19;;;26.87;58.16
54978;BME280;40873;47.522;19.106;2023-06-26T09:31:04;100215.34;;;26.98;57.02
54978;BME280;40873;47.522;19.106;2023-06-26T09:33:34;100213.97;;;27.22;57.33
54978;BME280;40873;47.522;19.106;2023-06-26T09:36:07;100210.91;;;27.45;58.06
54978;BME280;40873;47.522;19.106;2023-06-26T09:38:36;100218.06;;;27.79;59.07
54978;BME280;40873;47.522;19.106;2023-06-26T09:41:03;100211.38;;;27.95;55.86
54978;BME280;40873;47.522;19.106;2023-06-26T09:43:31;100212.25;;;27.96;54.01
54978;BME280;40873;47.522;19.106;2023-06-26T09:46:00;100210.97;;;28.05;57.24
54978;BME280;40873;47.522;19.106;2023-06-26T09:48:28;100211.78;;;28.12;58.05
54978;BME280;40873;47.522;19.106;2023-06-26T09:50:56;100207.41;;;28.24;53.06
54978;BME280;40873;47.522;19.106;2023-06-26T09:53:39;100203.66;;;28.38;50.00
54978;BME280;40873;47.522;19.106;2023-06-26T09:56:15;100203.88;;;28.30;52.60
54978;BME280;40873;47.522;19.106;2023-06-26T09:58:45;100202.56;;;28.53;50.38
54978;BME280;40873;47.522;19.106;2023-06-26T10:01:14;100201.34;;;28.42;48.22
54978;BME280;40873;47.522;19.106;2023-06-26T10:03:41;100200.72;;;28.33;49.91
54978;BME280;40873;47.522;19.106;2023-06-26T10:06:09;100195.91;;;28.42;47.77
54978;BME280;40873;47.522;19.106;2023-06-26T10:08:39;100188.59;;;28.43;48.81
54978;BME280;40873;47.522;19.106;2023-06-26T10:11:08;100194.03;;;28.29;47.83
54978;BME280;40873;47.522;19.106;2023-06-26T10:13:42;100188.00;;;28.34;46.35
54978;BME280;40873;47.522;19.106;2023-06-26T10:16:26;100181.94;;;28.45;48.18
54978;BME280;40873;47.522;19.106;2023-06-26T10:18:56;100180.94;;;28.91;48.17
54978;BME280;40873;47.522;19.106;2023-06-26T10:21:26;100180.66;;;29.06;46.79
54978;BME280;40873;47.522;19.106;2023-06-26T10:23:56;100183.78;;;29.41;48.85
54978;BME280;40873;47.522;19.106;2023-06-26T10:26:24;100177.09;;;29.05;50.66
54978;BME280;40873;47.522;19.106;2023-06-26T10:28:54;100177.19;;;28.79;51.90
54978;BME280;40873;47.522;19.106;2023-06-26T10:31:24;100174.19;;;28.42;51.38
54978;BME280;40873;47.522;19.106;2023-06-26T10:33:53;100177.38;;;28.06;52.24
54978;BME280;40873;47.522;19.106;2023-06-26T10:36:28;100179.28;;;27.72;53.28
54978;BME280;40873;47.522;19.106;2023-06-26T10:38:57;100184.44;;;27.47;53.68
54978;BME280;40873;47.522;19.106;2023-06-26T10:41:25;100188.81;;;27.42;54.97
54978;BME280;40873;47.522;19.106;2023-06-26T10:46:33;100174.06;;;27.77;49.40
54978;BME280;40873;47.522;19.106;2023-06-26T10:49:00;100175.09;;;27.96;49.99
54978;BME280;40873;47.522;19.106;2023-06-26T10:51:29;100173.22;;;28.17;51.67
54978;BME280;40873;47.522;19.106;2023-06-26T10:53:57;100163.09;;;28.50;48.03
54978;BME280;40873;47.522;19.106;2023-06-26T10:56:47;100173.84;;;28.83;52.33
54978;BME280;40873;47.522;19.106;2023-06-26T10:59:17;100178.03;;;29.24;50.10
54978;BME280;40873;47.522;19.106;2023-06-26T11:01:46;100172.84;;;29.54;47.92
54978;BME280;40873;47.522;19.106;2023-06-26T11:04:53;100172.19;;;29.59;47.91
54978;BME280;40873;47.522;19.106;2023-06-26T11:07:26;100175.38;;;29.49;52.46
54978;BME280;40873;47.522;19.106;2023-06-26T11:10:02;100175.56;;;29.47;47.88
54978;BME280;40873;47.522;19.106;2023-06-26T11:12:43;100169.66;;;29.64;43.76
54978;BME280;40873;47.522;19.106;2023-06-26T11:15:15;100163.19;;;29.83;48.94
54978;BME280;40873;47.522;19.106;2023-06-26T11:17:43;100170.78;;;29.99;46.04
54978;BME280;40873;47.522;19.106;2023-06-26T11:20:15;100162.53;;;30.13;46.84
54978;BME280;40873;47.522;19.106;2023-06-26T11:22:46;100162.75;;;30.29;45.87
54978;BME280;40873;47.522;19.106;2023-06-26T11:25:19;100165.75;;;29.78;46.34
54978;BME280;40873;47.522;19.106;2023-06-26T11:27:47;100170.56;;;29.51;47.72
54978;BME280;40873;47.522;19.106;2023-06-26T11:30:24;100166.88;;;29.39;46.98
54978;BME280;40873;47.522;19.106;2023-06-26T11:32:52;100156.84;;;29.08;48.64
54978;BME280;40873;47.522;19.106;2023-06-26T11:35:24;100152.75;;;28.79;50.20
54978;BME280;40873;47.522;19.106;2023-06-26T11:37:59;100153.03;;;28.64;50.28
54978;BME280;40873;47.522;19.106;2023-06-26T11:40:35;100159.38;;;28.45;51.34
54978;BME280;40873;47.522;19.106;2023-06-26T11:43:03;100157.31;;;28.20;49.70
54978;BME280;40873;47.522;19.106;2023-06-26T11:45:31;100146.47;;;28.27;49.38
54978;BME280;40873;47.522;19.106;2023-06-26T11:48:00;100152.72;;;28.40;47.76
54978;BME280;40873;47.522;19.106;2023-06-26T11:50:27;100148.06;;;28.54;48.39
54978;BME280;40873;47.522;19.106;2023-06-26T11:52:56;100144.34;;;29.00;50.35
54978;BME280;40873;47.522;19.106;2023-06-26T11:55:24;100141.28;;;29.21;47.30
54978;BME280;40873;47.522;19.106;2023-06-26T11:57:56;100134.38;;;29.75;46.89
54978;BME280;40873;47.522;19.106;2023-06-26T12:00:23;100133.44;;;29.88;47.87
54978;BME280;40873;47.522;19.106;2023-06-26T12:02:51;100138.19;;;30.18;46.76
54978;BME280;40873;47.522;19.106;2023-06-26T12:05:18;100130.72;;;30.68;44.03
54978;BME280;40873;47.522;19.106;2023-06-26T12:07:47;100148.31;;;31.14;44.30
54978;BME280;40873;47.522;19.106;2023-06-26T12:10:16;100145.47;;;31.21;42.29
54978;BME280;40873;47.522;19.106;2023-06-26T12:12:45;100138.13;;;30.61;41.94
54978;BME280;40873;47.522;19.106;2023-06-26T12:15:14;100146.97;;;30.20;44.90
54978;BME280;40873;47.522;19.106;2023-06-26T12:17:42;100137.16;;;29.94;45.24
54978;BME280;40873;47.522;19.106;2023-06-26T12:20:23;100145.31;;;29.94;45.57
54978;BME280;40873;47.522;19.106;2023-06-26T12:22:52;100144.84;;;29.79;46.81
54978;BME280;40873;47.522;19.106;2023-06-26T12:25:23;100141.69;;;29.57;46.45
54978;BME280;40873;47.522;19.106;2023-06-26T12:27:51;100147.31;;;29.24;49.59
54978;BME280;40873;47.522;19.106;2023-06-26T12:30:18;100137.88;;;29.01;47.93
54978;BME280;40873;47.522;19.106;2023-06-26T12:32:45;100134.19;;;28.76;48.04
54978;BME280;40873;47.522;19.106;2023-06-26T12:35:14;100132.16;;;28.64;48.86
54978;BME280;40873;47.522;19.106;2023-06-26T12:37:43;100138.50;;;28.45;48.23
54978;BME280;40873;47.522;19.106;2023-06-26T12:40:17;100138.78;;;28.30;48.15
54978;BME280;40873;47.522;19.106;2023-06-26T12:42:45;100144.38;;;28.16;50.23
54978;BME280;40873;47.522;19.106;2023-06-26T12:45:13;100137.97;;;28.03;50.86
54978;BME280;40873;47.522;19.106;2023-06-26T12:48:12;100137.97;;;27.97;53.05
54978;BME280;40873;47.522;19.106;2023-06-26T12:50:45;100141.09;;;27.87;52.54
54978;BME280;40873;47.522;19.106;2023-06-26T12:53:12;100141.53;;;27.77;53.11
54978;BME280;40873;47.522;19.106;2023-06-26T12:55:41;100139.22;;;27.68;52.15
54978;BME280;40873;47.522;19.106;2023-06-26T12:58:08;100135.03;;;27.65;51.83
54978;BME280;40873;47.522;19.106;2023-06-26T13:00:36;100132.13;;;27.93;54.17
54978;BME280;40873;47.522;19.106;2023-06-26T13:03:04;100126.66;;;28.33;49.52
54978;BME280;40873;47.522;19.106;2023-06-26T13:05:31;100124.50;;;28.48;46.28